sensor_id;sensor_type;location;lat;lon;timestamp;P1;durP1;ratioP1;P2;durP2;ratioP2
10769;SDS011;5437;50.852;4.438;2022-09-17T18:10:07;3.75;;;1.77;;
10769;SDS011;5437;50.852;4.438;2022-09-17T18:12:33;4.55;;;1.98;;
10769;SDS011;5437;50.852;4.438;2022-09-17T18:15:01;4.78;;;1.75;;
10769;SDS011;5437;50.852;4.438;2022-09-17T18:17:27;3.90;;;1.80;;
10769;SDS011;5437;50.852;4.438;2022-09-17T18:19:55;4.50;;;1.65;;
10769;SDS011;5437;50.852;4.438;2022-09-17T18:22:22;4.90;;;1.75;;
10769;SDS011;5437;50.852;4.438;2022-09-17T18:24:48;6.70;;;2.20;;
10769;SDS011;5437;50.852;4.438;2022-09-17T18:27:14;2.58;;;1.88;;
10769;SDS011;5437;50.852;4.438;2022-09-17T18:29:46;4.97;;;2.05;;
10769;SDS011;5437;50.852;4.438;2022-09-17T18:32:14;5.43;;;2.03;;
10769;SDS011;5437;50.852;4.438;2022-09-17T18:34:40;5.75;;;2.28;;
10769;SDS011;5437;50.852;4.438;2022-09-17T18:37:06;4.50;;;1.98;;
10769;SDS011;5437;50.852;4.438;2022-09-17T18:39:33;7.30;;;2.50;;
10769;SDS011;5437;50.852;4.438;2022-09-17T18:42:02;4.50;;;2.33;;
10769;SDS011;5437;50.852;4.438;2022-09-17T18:44:28;5.55;;;2.60;;
10769;SDS011;5437;50.852;4.438;2022-09-17T18:46:55;4.65;;;2.20;;
10769;SDS011;5437;50.852;4.438;2022-09-17T18:49:21;5.25;;;2.17;;
10769;SDS011;5437;50.852;4.438;2022-09-17T18:51:50;4.80;;;2.47;;
10769;SDS011;5437;50.852;4.438;2022-09-17T18:54:16;5.32;;;2.78;;
10769;SDS011;5437;50.852;4.438;2022-09-17T18:57:43;7.15;;;3.78;;
10769;SDS011;5437;50.852;4.438;2022-09-17T19:00:09;5.18;;;2.67;;
10769;SDS011;5437;50.852;4.438;2022-09-17T19:02:36;8.32;;;2.88;;
10769;SDS011;5437;50.852;4.438;2022-09-17T19:05:03;5.60;;;2.53;;
10769;SDS011;5437;50.852;4.438;2022-09-17T19:07:29;4.53;;;2.53;;
10769;SDS011;5437;50.852;4.438;2022-09-17T19:09:55;5.30;;;2.15;;
10769;SDS011;5437;50.852;4.438;2022-09-17T19:12:21;7.22;;;2.67;;
10769;SDS011;5437;50.852;4.438;2022-09-17T19:14:49;6.00;;;2.72;;
10769;SDS011;5437;50.852;4.438;2022-09-17T19:17:15;5.63;;;2.72;;
10769;SDS011;5437;50.852;4.438;2022-09-17T19:19:41;4.00;;;2.60;;
10769;SDS011;5437;50.852;4.438;2022-09-17T19:22:09;4.97;;;2.63;;
10769;SDS011;5437;50.852;4.438;2022-09-17T19:24:35;9.18;;;2.83;;
10769;SDS011;5437;50.852;4.438;2022-09-17T19:27:02;5.82;;;2.45;;
10769;SDS011;5437;50.852;4.438;2022-09-17T19:29:31;8.02;;;2.45;;
10769;SDS011;5437;50.852;4.438;2022-09-17T19:31:57;4.57;;;2.22;;
10769;SDS011;5437;50.852;4.438;2022-09-17T19:34:23;5.28;;;2.65;;
10769;SDS011;5437;50.852;4.438;2022-09-17T19:36:49;4.93;;;2.85;;
10769;SDS011;5437;50.852;4.438;2022-09-17T19:39:16;5.93;;;2.72;;
10769;SDS011;5437;50.852;4.438;2022-09-17T19:41:42;4.70;;;2.75;;
10769;SDS011;5437;50.852;4.438;2022-09-17T19:44:08;4.65;;;2.60;;
10769;SDS011;5437;50.852;4.438;2022-09-17T19:46:34;4.93;;;2.42;;
10769;SDS011;5437;50.852;4.438;2022-09-17T19:49:00;4.88;;;2.63;;
10769;SDS011;5437;50.852;4.438;2022-09-17T19:51:26;5.20;;;2.42;;
10769;SDS011;5437;50.852;4.438;2022-09-17T19:53:56;3.85;;;2.80;;
10769;SDS011;5437;50.852;4.438;2022-09-17T19:56:22;6.63;;;2.80;;
10769;SDS011;5437;50.852;4.438;2022-09-17T19:58:49;5.00;;;2.85;;
10769;SDS011;5437;50.852;4.438;2022-09-17T20:01:15;6.22;;;3.00;;
10769;SDS011;5437;50.852;4.438;2022-09-17T20:03:42;5.43;;;3.10;;
10769;SDS011;5437;50.852;4.438;2022-09-17T20:06:10;6.80;;;3.03;;
10769;SDS011;5437;50.852;4.438;2022-09-17T20:08:37;6.50;;;2.88;;
10769;SDS011;5437;50.852;4.438;2022-09-17T20:11:10;7.35;;;2.70;;
10769;SDS011;5437;50.852;4.438;2022-09-17T20:13:36;6.50;;;2.78;;
10769;SDS011;5437;50.852;4.438;2022-09-17T20:16:06;4.40;;;2.72;;
10769;SDS011;5437;50.852;4.438;2022-09-17T20:18:33;6.88;;;3.10;;
10769;SDS011;5437;50.852;4.438;2022-09-17T20:20:59;4.88;;;2.60;;
10769;SDS011;5437;50.852;4.438;2022-09-17T20:23:29;5.25;;;2.65;;
10769;SDS011;5437;50.852;4.438;2022-09-17T20:25:57;6.25;;;2.50;;
10769;SDS011;5437;50.852;4.438;2022-09-17T20:28:23;5.88;;;2.28;;
10769;SDS011;5437;50.852;4.438;2022-09-17T20:30:49;3.75;;;2.42;;
10769;SDS011;5437;50.852;4.438;2022-09-17T20:33:15;4.07;;;2.10;;
10769;SDS011;5437;50.852;4.438;2022-09-17T20:35:41;4.53;;;2.63;;
10769;SDS011;5437;50.852;4.438;2022-09-17T20:38:07;5.95;;;2.42;;
10769;SDS011;5437;50.852;4.438;2022-09-17T20:40:33;5.88;;;2.20;;
10769;SDS011;5437;50.852;4.438;2022-09-17T20:42:59;2.83;;;2.15;;
10769;SDS011;5437;50.852;4.438;2022-09-17T20:45:25;4.03;;;2.20;;
10769;SDS011;5437;50.852;4.438;2022-09-17T20:47:51;6.50;;;2.60;;
10769;SDS011;5437;50.852;4.438;2022-09-17T20:50:17;4.22;;;2.08;;
10769;SDS011;5437;50.852;4.438;2022-09-17T20:52:43;4.45;;;2.15;;
10769;SDS011;5437;50.852;4.438;2022-09-17T20:55:09;7.05;;;2.30;;
10769;SDS011;5437;50.852;4.438;2022-09-17T20:57:35;5.55;;;2.42;;
10769;SDS011;5437;50.852;4.438;2022-09-17T21:00:02;5.70;;;2.53;;
10769;SDS011;5437;50.852;4.438;2022-09-17T21:02:41;5.75;;;2.20;;
10769;SDS011;5437;50.852;4.438;2022-09-17T21:05:14;4.80;;;2.45;;
10769;SDS011;5437;50.852;4.438;2022-09-17T21:07:40;4.53;;;2.20;;
10769;SDS011;5437;50.852;4.438;2022-09-17T21:10:06;5.30;;;2.20;;
10769;SDS011;5437;50.852;4.438;2022-09-17T21:12:32;7.50;;;2.53;;
10769;SDS011;5437;50.852;4.438;2022-09-17T21:14:58;3.83;;;2.17;;
10769;SDS011;5437;50.852;4.438;2022-09-17T21:17:26;6.00;;;2.47;;
10769;SDS011;5437;50.852;4.438;2022-09-17T21:19:52;5.72;;;2.10;;
10769;SDS011;5437;50.852;4.438;2022-09-17T21:22:18;5.22;;;2.30;;
10769;SDS011;5437;50.852;4.438;2022-09-17T21:24:45;5.05;;;2.42;;
10769;SDS011;5437;50.852;4.438;2022-09-17T21:27:11;3.45;;;2.28;;
10769;SDS011;5437;50.852;4.438;2022-09-17T21:29:37;4.32;;;2.38;;
10769;SDS011;5437;50.852;4.438;2022-09-17T21:32:03;7.25;;;2.40;;
10769;SDS011;5437;50.852;4.438;2022-09-17T21:34:29;6.85;;;2.25;;
10769;SDS011;5437;50.852;4.438;2022-09-17T21:36:55;4.60;;;2.30;;
10769;SDS011;5437;50.852;4.438;2022-09-17T21:39:22;6.95;;;2.28;;
10769;SDS011;5437;50.852;4.438;2022-09-17T21:41:48;4.15;;;2.10;;
10769;SDS011;5437;50.852;4.438;2022-09-17T21:44:14;6.28;;;2.47;;
10769;SDS011;5437;50.852;4.438;2022-09-17T21:46:40;5.15;;;2.17;;
10769;SDS011;5437;50.852;4.438;2022-09-17T21:49:07;4.95;;;2.47;;
10769;SDS011;5437;50.852;4.438;2022-09-17T21:51:37;7.53;;;2.30;;
10769;SDS011;5437;50.852;4.438;2022-09-17T21:54:04;5.85;;;2.30;;
10769;SDS011;5437;50.852;4.438;2022-09-17T21:56:31;4.85;;;2.13;;
10769;SDS011;5437;50.852;4.438;2022-09-17T21:58:58;4.40;;;2.13;;
10769;SDS011;5437;50.852;4.438;2022-09-17T22:01:26;4.75;;;1.98;;
10769;SDS011;5437;50.852;4.438;2022-09-17T22:03:53;3.45;;;1.98;;
10769;SDS011;5437;50.852;4.438;2022-09-17T22:06:22;5.82;;;2.03;;
10769;SDS011;5437;50.852;4.438;2022-09-17T22:08:49;4.57;;;2.17;;
10769;SDS011;5437;50.852;4.438;2022-09-17T22:13:41;4.95;;;2.10;;
10769;SDS011;5437;50.852;4.438;2022-09-17T22:16:15;6.07;;;2.20;;
10769;SDS011;5437;50.852;4.438;2022-09-17T22:18:44;3.22;;;1.70;;
10769;SDS011;5437;50.852;4.438;2022-09-17T22:21:12;6.18;;;1.95;;
10769;SDS011;5437;50.852;4.438;2022-09-17T22:23:38;2.55;;;1.30;;
10769;SDS011;5437;50.852;4.438;2022-09-17T22:26:04;3.17;;;1.73;;
10769;SDS011;5437;50.852;4.438;2022-09-17T22:28:31;3.55;;;1.60;;
10769;SDS011;5437;50.852;4.438;2022-09-17T22:31:07;4.68;;;1.80;;
10769;SDS011;5437;50.852;4.438;2022-09-17T22:33:36;4.00;;;1.80;;
10769;SDS011;5437;50.852;4.438;2022-09-17T22:36:06;3.38;;;1.95;;
10769;SDS011;5437;50.852;4.438;2022-09-17T22:38:32;6.05;;;1.73;;
10769;SDS011;5437;50.852;4.438;2022-09-17T22:41:06;4.40;;;2.10;;
10769;SDS011;5437;50.852;4.438;2022-09-17T22:43:32;4.60;;;1.90;;
10769;SDS011;5437;50.852;4.438;2022-09-17T22:45:59;3.90;;;1.42;;
10769;SDS011;5437;50.852;4.438;2022-09-17T22:48:32;2.80;;;1.30;;
10769;SDS011;5437;50.852;4.438;2022-09-17T22:50:58;3.88;;;2.10;;
10769;SDS011;5437;50.852;4.438;2022-09-17T22:53:24;3.58;;;1.90;;
10769;SDS011;5437;50.852;4.438;2022-09-17T22:55:56;5.30;;;1.77;;
10769;SDS011;5437;50.852;4.438;2022-09-17T22:58:22;4.28;;;1.50;;
10769;SDS011;5437;50.852;4.438;2022-09-17T23:00:54;3.08;;;1.60;;
10769;SDS011;5437;50.852;4.438;2022-09-17T23:03:22;5.13;;;1.65;;
10769;SDS011;5437;50.852;4.438;2022-09-17T23:05:50;5.10;;;1.60;;
10769;SDS011;5437;50.852;4.438;2022-09-17T23:08:16;5.60;;;1.90;;
10769;SDS011;5437;50.852;4.438;2022-09-17T23:10:42;4.20;;;1.88;;
10769;SDS011;5437;50.852;4.438;2022-09-17T23:13:08;4.45;;;2.08;;
10769;SDS011;5437;50.852;4.438;2022-09-17T23:15:36;5.57;;;1.95;;
10769;SDS011;5437;50.852;4.438;2022-09-17T23:18:02;4.80;;;2.10;;
10769;SDS011;5437;50.852;4.438;2022-09-17T23:20:29;3.72;;;1.83;;
10769;SDS011;5437;50.852;4.438;2022-09-17T23:22:55;3.20;;;1.88;;
10769;SDS011;5437;50.852;4.438;2022-09-17T23:25:21;5.50;;;2.10;;
10769;SDS011;5437;50.852;4.438;2022-09-17T23:27:48;5.10;;;1.70;;
10769;SDS011;5437;50.852;4.438;2022-09-17T23:30:14;4.97;;;1.95;;
10769;SDS011;5437;50.852;4.438;2022-09-17T23:32:40;6.15;;;2.10;;
10769;SDS011;5437;50.852;4.438;2022-09-17T23:35:06;4.50;;;2.17;;
10769;SDS011;5437;50.852;4.438;2022-09-17T23:37:32;3.50;;;1.70;;
10769;SDS011;5437;50.852;4.438;2022-09-17T23:39:59;6.95;;;2.17;;
10769;SDS011;5437;50.852;4.438;2022-09-17T23:42:25;5.22;;;2.28;;
10769;SDS011;5437;50.852;4.438;2022-09-17T23:44:51;3.78;;;2.72;;
10769;SDS011;5437;50.852;4.438;2022-09-17T23:47:17;5.68;;;2.85;;
10769;SDS011;5437;50.852;4.438;2022-09-17T23:49:43;9.20;;;3.20;;
10769;SDS011;5437;50.852;4.438;2022-09-17T23:52:09;7.53;;;3.05;;
10769;SDS011;5437;50.852;4.438;2022-09-17T23:54:36;6.88;;;2.67;;
10769;SDS011;5437;50.852;4.438;2022-09-17T23:57:02;6.05;;;2.58;;
10769;SDS011;5437;50.852;4.438;2022-09-17T23:59:28;7.32;;;3.40;;
